Aeroporto :
LOGIN :

Iscrizione | Disclaimer

   EN    FR    IT 

 










Sommario :    VFR   VFR Marginale   IFR   IFR Intensivo   IFR Molto Intensivo
Visibilità : 
Base nubi : 
>= 8 km
>= 3000ft
5 / 8 km
1000 / 3000 ft
1500m / 5 km
500 / 1000 ft
800 / 1500m
200 / 500 ft
< 800m
< 200 ft
Simboli :   Temporali  Nebbia  Neve Forte  Precipitazioni Forti  Vento > 20 kt
SIGMETs :   Varie  Temporali  Ghiacco  Turbolenza  Onda orograficha  Ceneri Vulcaniche







- Altitudine del aeroporto : 424 ft
- Codice IATA : QGY


LHPR - Györ Per

ULTIMO METAR :
  • 211245Z 32016KT 280V350 8000 -TSRA FEW016 FEW030CB 22/15 Q1024

METARs OBSOLETI :
  • 211215Z 32018KT 290V350 9999 FEW023 FEW046CB BKN100 23/14 Q1024
  • 211145Z 33017KT 290V360 9999 FEW036 SCT133 23/14 Q1024
  • 211115Z 32018KT 290V360 9999 SCT036 SCT100 24/14 Q1024
  • 211045Z 32015KT 290V010 9999 SCT036 23/14 Q1024
  • 211015Z 32017G28KT 280V350 9999 SCT036 SCT100 23/14 Q1024

TAF TAF LHPR
Valido dal 21 a 12 ore il 21 a 21 ore UTC


211115Z 2112/2121 31016KT 9999 SCT035
PROB40
TEMPO 2112/2121 SHRA SCT030TCU
PROB30
TEMPO 2112/2118 24020G36KT TSRA SQ BKN030CB
Nessun NOTAM noto per questo aeroporto.



MetMap, La meteo Aeronautica in un colpo d'occhio ! - Copyright ORBIFLY Dicembre 2007 - Disclaimer

ORBIFLY MET'MAP TEAM :

Programmazione e sviluppo : Alexandra Zaïnal
Concezione e sviluppo : Baudouin d'Aumeries
Co-Programmazione e sviluppo : Marc-Olivier Méhu
Supporto tecnico e logistico : Manuel Goepfert
Aiuto per la traduzione : Arnaldo La Scala

Contatto : metmap@orbifly.com




FONTI E CREDITI :

   NOAA